Time;durP1;ratioP1;P1;durP2;ratioP2;P2;SDS_P1;SDS_P2;PMS_P1;PMS_P2;Temp;Humidity;BMP_temperature;BMP_pressure;BME280_temperature;BME280_humidity;BME280_pressure;Samples;Min_cycle;Max_cycle;Signal;HPM_P1;HPM_P2
2022/07/06 00:01:10;;;;;;;7.72;6.38;;;;;;;20.95;60.91;99300.81;5052533;28;20045;-75
2022/07/06 00:03:35;;;;;;;15.32;6.90;;;;;;;21.22;60.20;99288.94;5053473;28;20060;-76
2022/07/06 00:06:01;;;;;;;13.02;5.82;;;;;;;21.48;59.25;99288.81;5052176;28;20389;-76
2022/07/06 00:08:26;;;;;;;12.88;6.43;;;;;;;21.66;59.00;99294.41;5052576;28;20033;-76
2022/07/06 00:10:52;;;;;;;12.70;7.03;;;;;;;21.62;58.87;99291.59;5053745;28;20106;-76
2022/07/06 00:13:17;;;;;;;10.02;6.30;;;;;;;21.46;58.70;99286.41;5053833;28;20451;-76
2022/07/06 00:15:43;;;;;;;13.43;6.90;;;;;;;21.48;58.67;99283.13;5052538;28;20033;-76
2022/07/06 00:18:08;;;;;;;9.60;5.72;;;;;;;21.78;57.90;99271.22;5053475;28;20399;-76
2022/07/06 00:20:34;;;;;;;8.32;5.57;;;;;;;21.95;57.42;99260.09;5053545;28;20044;-76
2022/07/06 00:22:59;;;;;;;12.20;6.60;;;;;;;22.13;56.55;99265.66;5053611;28;20395;-76
2022/07/06 00:25:25;;;;;;;13.25;6.18;;;;;;;22.42;56.02;99251.16;5053070;28;20385;-76
2022/07/06 00:27:50;;;;;;;13.98;6.35;;;;;;;22.77;54.55;99259.81;5052984;28;20052;-76
2022/07/06 00:30:16;;;;;;;9.88;5.50;;;;;;;22.85;54.29;99261.31;5051395;28;20491;-76
2022/07/06 00:32:41;;;;;;;8.95;4.97;;;;;;;22.91;54.17;99253.13;5052250;28;20072;-76
2022/07/06 00:35:07;;;;;;;9.38;6.18;;;;;;;23.03;54.06;99251.75;5053174;28;20029;-76
2022/07/06 00:37:32;;;;;;;14.68;6.95;;;;;;;23.11;53.96;99251.25;5051891;28;20029;-76
2022/07/06 00:39:58;;;;;;;11.13;6.97;;;;;;;23.16;53.84;99240.59;5052732;28;20033;-76
2022/07/06 00:42:24;;;;;;;10.10;6.90;;;;;;;23.34;53.66;99224.09;5053174;28;20029;-76
2022/07/06 00:44:50;;;;;;;15.70;7.40;;;;;;;23.49;53.11;99238.97;5051032;28;20071;-76
2022/07/06 00:47:15;;;;;;;15.05;6.90;;;;;;;23.50;52.95;99220.59;5053150;28;20511;-76
2022/07/06 00:52:25;;;;;;;7.00;5.95;;;;;;;23.18;52.33;99209.63;5053077;28;20094;-76
2022/07/06 00:54:51;;;;;;;10.40;5.90;;;;;;;23.44;51.90;99204.41;5051571;28;20458;-76
2022/07/06 00:57:18;;;;;;;13.25;5.97;;;;;;;23.58;51.58;99195.63;5051736;28;20029;-76
2022/07/06 00:59:43;;;;;;;10.80;5.45;;;;;;;23.64;51.32;99184.50;5050804;28;20035;-76
2022/07/06 01:02:09;;;;;;;8.80;5.85;;;;;;;23.84;50.49;99176.03;5052640;28;20025;-76
2022/07/06 01:04:34;;;;;;;8.63;4.95;;;;;;;23.98;50.17;99169.28;5050153;28;20032;-76
2022/07/06 01:07:01;;;;;;;18.60;6.05;;;;;;;24.05;49.93;99168.38;5052749;28;20399;-76
2022/07/06 01:09:27;;;;;;;8.88;5.72;;;;;;;24.14;49.85;99160.06;5051306;28;20043;-76
2022/07/06 01:11:53;;;;;;;8.35;5.53;;;;;;;24.21;49.75;99154.19;5052717;28;20021;-76
2022/07/06 01:14:19;;;;;;;10.68;5.35;;;;;;;24.30;49.21;99149.97;5051558;28;20403;-75
2022/07/06 01:16:45;;;;;;;10.77;5.88;;;;;;;24.25;49.37;99149.22;5052566;28;20040;-76
2022/07/06 01:19:11;;;;;;;9.15;7.13;;;;;;;24.38;48.40;99143.66;5052491;28;20039;-76
2022/07/06 01:21:39;;;;;;;10.60;5.25;;;;;;;24.12;49.00;99142.50;5052412;28;20476;-76
2022/07/06 01:24:05;;;;;;;13.88;6.25;;;;;;;23.88;49.84;99133.94;5052171;28;20025;-76
2022/07/06 01:26:31;;;;;;;8.63;5.80;;;;;;;24.05;50.18;99131.25;5050117;28;20112;-75
2022/07/06 01:28:57;;;;;;;6.97;5.57;;;;;;;24.06;50.19;99125.06;5051674;28;20049;-76
2022/07/06 01:31:24;;;;;;;17.38;6.43;;;;;;;24.10;50.07;99120.13;5052188;28;20064;-76
2022/07/06 01:33:52;;;;;;;11.93;6.97;;;;;;;24.04;50.41;99121.84;5052158;28;20033;-76
2022/07/06 01:36:18;;;;;;;9.20;5.97;;;;;;;24.02;50.70;99112.09;5050992;28;20450;-76
2022/07/06 01:38:54;;;;;;;8.32;6.05;;;;;;;24.06;50.56;99113.66;5051822;28;20049;-76
2022/07/06 01:41:20;;;;;;;15.70;5.95;;;;;;;23.97;50.91;99105.63;5051762;28;20025;-76
2022/07/06 01:43:46;;;;;;;8.45;5.60;;;;;;;23.78;51.67;99104.34;5052101;28;20029;-75
2022/07/06 01:46:12;;;;;;;7.57;6.00;;;;;;;23.73;51.83;99095.47;5052029;28;20100;-75
2022/07/06 01:48:38;;;;;;;7.05;6.35;;;;;;;23.73;52.04;99092.59;5051315;28;20052;-75
2022/07/06 01:51:04;;;;;;;14.52;7.55;;;;;;;23.66;52.08;99085.81;5050533;28;20031;-75
2022/07/06 01:53:30;;;;;;;7.10;5.32;;;;;;;23.62;52.20;99096.44;5050970;28;20025;-75
2022/07/06 01:55:56;;;;;;;10.70;6.40;;;;;;;23.59;52.12;99087.94;5047154;28;20035;-76
2022/07/06 01:58:22;;;;;;;12.65;6.57;;;;;;;23.48;52.68;99096.69;5049403;28;20047;-76
2022/07/06 02:00:47;;;;;;;7.20;6.25;;;;;;;23.46;52.43;99087.78;5048864;28;20037;-75
2022/07/06 02:03:13;;;;;;;10.75;7.25;;;;;;;23.50;52.85;99095.03;5049913;28;20470;-75
2022/07/06 02:05:38;;;;;;;9.57;6.40;;;;;;;22.33;55.82;99097.03;5050929;28;20031;-75
2022/07/06 02:08:04;;;;;;;12.73;7.68;;;;;;;21.59;58.01;99101.78;5051137;28;20483;-75
2022/07/06 02:10:29;;;;;;;12.13;7.00;;;;;;;21.74;57.09;99103.31;5051086;28;20126;-75
2022/07/06 02:12:55;;;;;;;17.90;6.72;;;;;;;22.33;55.61;99103.53;5049745;28;20029;-75
2022/07/06 02:15:20;;;;;;;20.25;6.38;;;;;;;22.44;54.99;99106.22;5048861;28;20120;-76
2022/07/06 02:17:46;;;;;;;19.92;6.50;;;;;;;22.15;55.13;99098.03;5050527;28;20029;-75
2022/07/06 02:20:11;;;;;;;9.90;7.03;;;;;;;21.84;56.04;99109.31;5048210;28;20579;-75
2022/07/06 02:22:37;;;;;;;17.05;7.55;;;;;;;21.73;56.46;99109.41;5050810;28;20032;-75
2022/07/06 02:25:03;;;;;;;22.05;8.93;;;;;;;21.58;56.53;99112.38;5049528;28;20025;-75
2022/07/06 02:27:28;;;;;;;15.32;8.15;;;;;;;21.56;57.50;99114.81;5050831;28;20542;-75
2022/07/06 02:29:54;;;;;;;16.98;9.93;;;;;;;21.40;57.74;99115.34;5050228;28;20024;-75
2022/07/06 02:32:19;;;;;;;15.57;9.38;;;;;;;21.21;59.45;99113.03;5050963;28;20029;-75
2022/07/06 02:34:45;;;;;;;15.10;10.48;;;;;;;21.11;60.75;99120.44;5048674;28;20029;-75
2022/07/06 02:37:10;;;;;;;30.38;13.15;;;;;;;20.98;61.44;99115.22;5044703;28;20025;-75
2022/07/06 02:39:36;;;;;;;24.25;9.65;;;;;;;21.01;61.67;99110.75;5063345;28;20408;-75
2022/07/06 02:42:02;;;;;;;15.45;8.65;;;;;;;20.92;62.38;99116.06;5048940;28;20033;-75
2022/07/06 02:44:27;;;;;;;23.02;8.70;;;;;;;21.01;62.17;99103.00;5050660;28;20029;-76
2022/07/06 02:46:53;;;;;;;25.75;8.82;;;;;;;21.00;62.20;99106.28;5049292;28;20025;-75
2022/07/06 02:49:18;;;;;;;13.20;9.30;;;;;;;21.06;62.24;99112.31;5048317;28;20044;-75
2022/07/06 02:51:43;;;;;;;22.67;9.35;;;;;;;21.13;61.96;99113.09;5050521;28;20021;-75
2022/07/06 02:54:09;;;;;;;12.68;9.15;;;;;;;20.98;62.29;99111.56;5049233;28;20052;-74
2022/07/06 02:56:34;;;;;;;12.93;9.00;;;;;;;21.01;62.54;99116.44;5049401;28;20025;-75
2022/07/06 02:59:00;;;;;;;31.92;12.63;;;;;;;21.01;62.45;99128.59;5049117;28;20017;-77
2022/07/06 03:01:26;;;;;;;20.17;13.20;;;;;;;20.85;63.53;99131.13;5049696;28;20028;-78
2022/07/06 03:03:51;;;;;;;18.30;11.15;;;;;;;20.77;63.93;99124.66;5050671;28;20029;-76
2022/07/06 03:06:17;;;;;;;24.55;12.68;;;;;;;20.65;65.10;99127.97;5048896;28;20021;-76
2022/07/06 03:08:43;;;;;;;25.80;14.10;;;;;;;20.71;65.30;99143.34;5050495;28;20098;-76
2022/07/06 03:11:09;;;;;;;18.10;12.40;;;;;;;20.56;66.34;99137.72;5049131;28;20024;-76
2022/07/06 03:13:34;;;;;;;21.30;11.80;;;;;;;20.57;66.95;99135.66;5049870;28;20024;-76
2022/07/06 03:16:00;;;;;;;18.38;10.43;;;;;;;20.59;67.57;99136.88;5048258;28;20025;-76
2022/07/06 03:18:25;;;;;;;19.75;11.80;;;;;;;20.58;67.67;99131.63;5048184;28;20345;-76
2022/07/06 03:20:51;;;;;;;12.57;10.60;;;;;;;20.60;68.91;99147.03;5047524;28;20025;-76
2022/07/06 03:23:16;;;;;;;14.85;12.35;;;;;;;20.62;69.36;99138.91;5049840;28;20032;-76
2022/07/06 03:25:42;;;;;;;16.58;12.20;;;;;;;20.70;69.76;99138.88;5048242;28;20024;-76
2022/07/06 03:28:07;;;;;;;18.70;13.18;;;;;;;20.67;70.82;99142.56;5049172;28;20044;-76
2022/07/06 03:30:33;;;;;;;16.83;12.95;;;;;;;20.80;70.82;99152.25;5050021;28;20036;-76
2022/07/06 03:32:58;;;;;;;14.45;13.05;;;;;;;20.82;71.02;99137.66;5052579;28;20079;-76
2022/07/06 03:35:24;;;;;;;20.08;12.52;;;;;;;20.88;71.36;99139.66;5053724;28;20032;-76
2022/07/06 03:37:49;;;;;;;20.40;14.43;;;;;;;20.98;71.42;99140.81;5052502;28;20492;-76
2022/07/06 03:40:15;;;;;;;18.50;14.88;;;;;;;21.15;70.43;99150.47;5053377;28;20064;-76
2022/07/06 03:42:40;;;;;;;15.85;13.48;;;;;;;21.09;70.61;99135.03;5053279;28;20025;-76
2022/07/06 03:45:07;;;;;;;13.57;12.18;;;;;;;21.23;69.98;99139.03;5053738;28;20052;-76
2022/07/06 03:47:32;;;;;;;15.05;12.02;;;;;;;21.32;69.76;99147.91;5052709;28;20425;-76
2022/07/06 03:49:58;;;;;;;14.27;12.00;;;;;;;21.23;70.22;99141.88;5052053;28;20032;-75
2022/07/06 03:52:23;;;;;;;18.02;13.18;;;;;;;21.30;70.04;99150.38;5051666;28;20024;-76
2022/07/06 03:54:49;;;;;;;28.98;11.68;;;;;;;21.25;69.81;99136.59;5052144;28;20112;-76
2022/07/06 03:57:14;;;;;;;22.33;12.90;;;;;;;21.44;69.50;99140.94;5053344;28;20025;-76
2022/07/06 03:59:40;;;;;;;16.17;11.05;;;;;;;21.39;69.41;99142.19;5052083;28;20020;-75
2022/07/06 04:02:05;;;;;;;21.48;11.82;;;;;;;21.40;69.22;99143.78;5051355;28;20065;-76
2022/07/06 04:04:33;;;;;;;21.52;10.77;;;;;;;21.51;68.90;99142.91;5051630;28;20028;-76
2022/07/06 04:06:58;;;;;;;25.92;11.43;;;;;;;21.55;68.89;99153.03;5053177;28;20019;-76
2022/07/06 04:09:24;;;;;;;14.63;11.13;;;;;;;21.68;68.58;99156.22;5051908;28;20487;-76
2022/07/06 04:11:49;;;;;;;12.88;10.00;;;;;;;21.72;68.23;99154.16;5051639;28;20102;-76
2022/07/06 04:14:15;;;;;;;17.52;11.57;;;;;;;21.70;68.19;99156.59;5052490;28;20044;-76
2022/07/06 04:16:40;;;;;;;12.30;10.95;;;;;;;21.78;68.28;99156.53;5052934;28;20496;-77
2022/07/06 04:19:05;;;;;;;17.10;11.20;;;;;;;21.74;68.10;99151.69;5051423;28;20397;-77
2022/07/06 04:21:31;;;;;;;19.33;11.00;;;;;;;21.83;67.88;99154.06;5051491;28;20087;-76
2022/07/06 04:23:56;;;;;;;20.20;12.38;;;;;;;21.82;67.89;99154.47;5052940;28;20063;-76
2022/07/06 04:26:22;;;;;;;14.50;11.18;;;;;;;21.81;68.19;99156.53;5051275;28;20032;-77
2022/07/06 04:28:47;;;;;;;17.75;11.35;;;;;;;21.81;68.19;99150.81;5050961;28;20041;-76
2022/07/06 04:31:15;;;;;;;13.02;11.50;;;;;;;21.78;67.92;99142.31;5051120;28;20499;-76
2022/07/06 04:33:42;;;;;;;12.82;10.75;;;;;;;21.84;68.28;99154.84;5049747;28;20427;-76
2022/07/06 04:36:08;;;;;;;14.70;10.32;;;;;;;21.86;68.38;99146.72;5052569;28;20029;-76
2022/07/06 04:38:33;;;;;;;20.40;12.55;;;;;;;22.00;68.33;99157.16;5052017;28;20023;-76
2022/07/06 04:40:59;;;;;;;13.50;12.13;;;;;;;21.90;68.63;99152.34;5051552;28;20033;-76
2022/07/06 04:43:24;;;;;;;13.95;10.38;;;;;;;22.00;68.23;99162.84;5052289;28;20025;-76
2022/07/06 04:45:50;;;;;;;13.88;10.73;;;;;;;22.06;68.48;99154.66;5051282;28;20466;-76
2022/07/06 04:48:15;;;;;;;15.35;10.50;;;;;;;21.96;68.26;99151.50;5049302;28;20036;-75
2022/07/06 04:50:41;;;;;;;12.82;10.90;;;;;;;21.91;68.03;99154.78;5044182;28;20052;-75
2022/07/06 04:53:06;;;;;;;18.40;11.50;;;;;;;21.80;68.87;99154.09;5053642;28;20090;-76
2022/07/06 04:55:32;;;;;;;13.63;9.85;;;;;;;21.81;68.52;99150.00;5043102;28;20025;-76
2022/07/06 04:57:57;;;;;;;12.77;10.18;;;;;;;21.89;68.13;99157.25;5033569;28;20025;-76
2022/07/06 05:00:23;;;;;;;15.45;10.63;;;;;;;21.98;68.31;99174.66;5047447;28;20587;-76
2022/07/06 05:02:48;;;;;;;21.00;11.52;;;;;;;21.93;67.89;99160.09;5049221;28;20111;-76
2022/07/06 05:05:14;;;;;;;11.57;9.88;;;;;;;21.92;67.73;99158.47;5048525;28;20025;-76
2022/07/06 05:07:40;;;;;;;19.30;11.07;;;;;;;22.12;67.39;99176.56;5047549;28;20510;-76
2022/07/06 05:10:10;;;;;;;11.40;10.27;;;;;;;22.11;67.40;99177.78;5059697;28;20044;-76
2022/07/06 05:12:35;;;;;;;17.17;11.20;;;;;;;22.06;66.84;99160.34;5067190;28;20025;-76
2022/07/06 05:15:01;;;;;;;17.27;9.65;;;;;;;22.20;66.50;99185.03;5047079;28;20036;-76
2022/07/06 05:17:26;;;;;;;10.98;9.63;;;;;;;22.19;66.17;99183.44;5040932;28;20124;-76
2022/07/06 05:19:52;;;;;;;20.00;11.10;;;;;;;22.25;65.83;99185.41;5036521;28;20098;-76
2022/07/06 05:22:18;;;;;;;12.15;10.05;;;;;;;22.32;65.68;99184.50;5050527;28;20037;-75
2022/07/06 05:24:44;;;;;;;19.00;10.73;;;;;;;22.36;65.64;99199.53;5049728;28;20060;-75
2022/07/06 05:27:10;;;;;;;53.75;13.88;;;;;;;22.31;65.24;99185.75;5057528;28;20078;-79
2022/07/06 05:29:36;;;;;;;21.13;11.68;;;;;;;22.43;65.34;99201.47;5050950;28;20127;-77
2022/07/06 05:32:01;;;;;;;13.00;10.82;;;;;;;22.39;64.84;99180.78;5050484;28;20021;-79
2022/07/06 05:34:27;;;;;;;13.73;11.02;;;;;;;22.55;64.43;99209.53;5065804;28;20511;-74
2022/07/06 05:36:53;;;;;;;11.98;10.77;;;;;;;22.47;64.47;99212.84;5049883;28;20033;-75
2022/07/06 05:39:21;;;;;;;15.73;10.88;;;;;;;22.53;64.27;99212.00;5051183;28;20094;-75
2022/07/06 05:41:47;;;;;;;18.15;11.93;;;;;;;22.56;63.97;99211.16;5050612;28;20025;-75
2022/07/06 05:44:12;;;;;;;13.07;10.95;;;;;;;22.41;64.38;99221.03;5051764;28;20029;-78
2022/07/06 05:46:38;;;;;;;16.85;10.45;;;;;;;22.43;64.46;99218.56;5050701;28;20025;-80
2022/07/06 05:51:49;;;;;;;18.92;11.00;;;;;;;22.40;64.48;99225.94;5052151;28;20039;-78
2022/07/06 05:54:15;;;;;;;19.95;12.25;;;;;;;22.38;64.24;99219.06;5050052;28;20052;-78
2022/07/06 05:56:40;;;;;;;12.68;11.27;;;;;;;22.47;64.20;99227.09;5047680;28;20033;-78
2022/07/06 05:59:06;;;;;;;19.73;11.98;;;;;;;22.54;63.84;99219.31;5066735;28;20025;-78
2022/07/06 06:01:31;;;;;;;14.10;12.13;;;;;;;22.51;64.15;99231.56;5051280;28;20545;-78
2022/07/06 06:03:59;;;;;;;17.88;12.30;;;;;;;22.47;64.17;99224.25;5051175;28;20060;-79
2022/07/06 06:06:25;;;;;;;14.88;12.20;;;;;;;22.50;64.34;99232.78;5066014;28;20025;-76
2022/07/06 06:08:50;;;;;;;23.02;12.98;;;;;;;22.56;64.13;99219.72;5051265;28;20029;-77
2022/07/06 06:11:16;;;;;;;24.77;14.68;;;;;;;22.48;63.84;99223.88;5048533;28;20082;-76
2022/07/06 06:13:41;;;;;;;15.15;12.93;;;;;;;22.51;63.75;99219.38;5048639;28;20067;-76
2022/07/06 06:16:07;;;;;;;18.50;14.63;;;;;;;22.70;63.74;99232.97;5050149;28;20029;-74
2022/07/06 06:18:32;;;;;;;33.25;14.60;;;;;;;22.74;63.88;99232.94;5043036;28;20036;-73
2022/07/06 06:20:58;;;;;;;17.17;14.35;;;;;;;22.76;63.80;99233.31;5034302;28;20104;-76
2022/07/06 06:23:23;;;;;;;25.70;14.32;;;;;;;22.79;63.97;99235.31;5048695;28;20029;-75
2022/07/06 06:25:49;;;;;;;17.00;15.00;;;;;;;22.77;63.61;99225.59;5044920;28;20459;-76
2022/07/06 06:28:14;;;;;;;16.33;14.18;;;;;;;22.83;63.78;99241.81;5049529;28;20067;-76
2022/07/06 06:30:40;;;;;;;19.02;16.30;;;;;;;22.88;63.25;99231.16;5051124;28;20033;-74
2022/07/06 06:33:16;;;;;;;21.45;16.83;;;;;;;22.94;63.21;99233.13;5051575;28;20072;-78
2022/07/06 06:35:46;;;;;;;19.05;16.35;;;;;;;22.82;63.46;99228.78;5035775;28;20024;-78
2022/07/06 06:38:11;;;;;;;21.95;16.25;;;;;;;22.95;63.40;99233.94;5050296;28;20479;-78
2022/07/06 06:40:37;;;;;;;18.65;15.43;;;;;;;23.02;63.34;99233.84;5049172;28;20052;-78
2022/07/06 06:43:03;;;;;;;28.15;16.70;;;;;;;23.02;62.85;99238.75;5049584;28;20025;-78
2022/07/06 06:45:28;;;;;;;20.75;15.45;;;;;;;22.98;63.00;99238.78;5047393;28;20029;-78
2022/07/06 06:47:54;;;;;;;18.40;14.77;;;;;;;22.92;63.55;99229.06;5056301;28;20035;-78
2022/07/06 06:50:20;;;;;;;17.33;14.57;;;;;;;22.94;63.56;99230.25;5044985;28;20029;-78
2022/07/06 06:52:46;;;;;;;21.85;15.93;;;;;;;22.95;63.56;99223.31;5049847;28;20385;-78
2022/07/06 06:55:11;;;;;;;37.90;16.52;;;;;;;22.97;63.16;99229.41;5048907;28;20033;-80
2022/07/06 06:57:37;;;;;;;20.80;15.35;;;;;;;22.97;63.33;99217.22;5061057;28;20041;-75
2022/07/06 07:00:06;;;;;;;20.27;15.25;;;;;;;23.03;63.48;99229.75;5044632;28;20039;-76
2022/07/06 07:02:32;;;;;;;21.10;14.67;;;;;;;23.02;63.28;99221.63;5041806;28;20025;-75
2022/07/06 07:04:57;;;;;;;18.25;15.32;;;;;;;23.05;62.83;99207.34;5047060;28;20038;-75
2022/07/06 07:07:23;;;;;;;21.17;16.05;;;;;;;23.12;63.26;99215.00;5066292;28;20123;-74
2022/07/06 07:09:48;;;;;;;24.63;15.60;;;;;;;23.16;63.14;99212.06;5062536;28;20029;-76
2022/07/06 07:12:16;;;;;;;17.98;14.30;;;;;;;23.35;63.02;99220.00;5060501;28;20131;-76
2022/07/06 07:14:43;;;;;;;18.88;15.25;;;;;;;23.44;62.55;99215.81;5055995;28;20149;-76
2022/07/06 07:17:08;;;;;;;16.67;14.85;;;;;;;23.51;62.18;99210.81;5052496;28;20106;-83
2022/07/06 07:19:34;;;;;;;19.88;14.40;;;;;;;23.62;60.86;99199.22;5053580;28;20498;-78
2022/07/06 07:21:59;;;;;;;16.55;13.90;;;;;;;23.79;60.83;99210.78;5051710;28;20033;-81
2022/07/06 07:24:25;;;;;;;35.22;14.23;;;;;;;23.83;59.94;99208.69;5051142;28;20483;-81
2022/07/06 07:26:50;;;;;;;23.42;13.90;;;;;;;23.91;59.71;99204.47;5052776;28;20090;-78
2022/07/06 07:29:16;;;;;;;22.00;13.90;;;;;;;24.08;59.84;99208.31;5050765;28;20512;-75
2022/07/06 07:31:41;;;;;;;23.45;13.55;;;;;;;24.25;59.44;99212.09;5049303;28;20037;-80
2022/07/06 07:34:07;;;;;;;15.75;13.70;;;;;;;24.36;58.85;99205.34;5052697;28;20143;-78
2022/07/06 07:36:32;;;;;;;15.80;13.45;;;;;;;24.44;58.56;99209.69;5053445;28;20028;-79
2022/07/06 07:38:58;;;;;;;16.02;12.57;;;;;;;24.48;57.70;99210.44;5052032;28;20043;-81
2022/07/06 07:41:23;;;;;;;24.92;13.50;;;;;;;24.45;58.18;99204.81;5050948;28;20032;-84
2022/07/06 07:43:49;;;;;;;13.70;12.40;;;;;;;24.58;58.46;99208.63;5052752;28;20040;-82
2022/07/06 07:46:15;;;;;;;14.80;12.52;;;;;;;24.51;57.82;99212.44;5049174;28;20029;-77
2022/07/06 07:48:41;;;;;;;19.05;13.75;;;;;;;24.67;58.14;99214.56;5051279;28;20029;-73
2022/07/06 07:51:07;;;;;;;14.88;12.00;;;;;;;24.54;58.29;99208.69;5053908;28;20502;-75
2022/07/06 07:53:32;;;;;;;15.30;12.43;;;;;;;24.51;57.75;99189.56;5053483;28;20036;-76
2022/07/06 07:55:58;;;;;;;15.63;13.30;;;;;;;24.57;57.76;99194.75;5053504;28;20025;-76
2022/07/06 07:58:24;;;;;;;15.80;14.13;;;;;;;24.68;57.75;99195.34;5052506;28;20498;-76
2022/07/06 08:00:49;;;;;;;15.52;13.60;;;;;;;24.76;58.04;99193.97;5051277;28;20021;-76
2022/07/06 08:03:15;;;;;;;15.25;13.52;;;;;;;24.73;57.46;99194.84;5053334;28;20025;-76
2022/07/06 08:05:40;;;;;;;16.48;14.73;;;;;;;24.84;57.37;99203.25;5052186;28;20024;-76
2022/07/06 08:08:05;;;;;;;17.65;13.50;;;;;;;24.84;57.22;99171.78;5051012;28;20029;-76
2022/07/06 08:10:31;;;;;;;16.58;13.25;;;;;;;25.09;57.40;99199.84;5051283;28;20025;-76
2022/07/06 08:12:57;;;;;;;17.70;12.90;;;;;;;25.13;57.19;99194.03;5050090;28;20033;-76
2022/07/06 08:15:22;;;;;;;19.95;14.43;;;;;;;25.26;56.35;99194.19;5048488;28;20083;-76
2022/07/06 08:17:48;;;;;;;19.42;13.45;;;;;;;25.41;55.99;99197.53;5033667;28;20073;-76
2022/07/06 08:20:14;;;;;;;18.55;14.38;;;;;;;25.45;55.12;99194.56;5042264;28;20123;-77
2022/07/06 08:22:39;;;;;;;16.45;14.80;;;;;;;25.42;55.10;99192.59;5051095;28;20155;-76
2022/07/06 08:25:05;;;;;;;15.98;13.90;;;;;;;25.41;54.67;99193.84;5049961;28;20064;-78
2022/07/06 08:27:31;;;;;;;20.30;14.38;;;;;;;25.42;54.93;99199.16;5050752;28;20124;-78
2022/07/06 08:29:57;;;;;;;20.48;14.02;;;;;;;25.44;54.59;99190.09;5049186;28;20116;-79
2022/07/06 08:32:22;;;;;;;21.98;14.00;;;;;;;25.38;54.00;99204.13;5047499;28;20017;-79
2022/07/06 08:34:48;;;;;;;16.92;13.63;;;;;;;25.40;54.22;99195.09;5046349;28;20037;-79
2022/07/06 08:37:13;;;;;;;17.13;14.43;;;;;;;25.26;55.08;99194.19;5064101;28;20033;-79
2022/07/06 08:39:39;;;;;;;19.23;13.63;;;;;;;25.17;55.42;99189.06;5052535;28;20081;-80
2022/07/06 08:42:07;;;;;;;27.52;14.10;;;;;;;25.15;55.59;99196.47;5052657;28;20426;-79
2022/07/06 08:44:33;;;;;;;21.10;13.77;;;;;;;25.04;55.35;99193.81;5060851;28;20032;-78
2022/07/06 08:47:04;;;;;;;19.08;13.57;;;;;;;25.08;54.90;99198.22;5043123;28;20033;-78
2022/07/06 08:49:32;;;;;;;24.88;13.40;;;;;;;25.15;54.41;99197.25;5059619;28;20029;-78
2022/07/06 08:51:57;;;;;;;18.10;14.10;;;;;;;25.20;53.82;99191.03;5068740;28;20032;-78
2022/07/06 08:54:24;;;;;;;14.70;13.30;;;;;;;25.07;54.01;99161.50;5051454;28;20086;-75
2022/07/06 08:56:50;;;;;;;25.05;13.27;;;;;;;25.38;54.13;99201.25;5048846;28;20035;-76
2022/07/06 08:59:16;;;;;;;14.43;12.88;;;;;;;25.15;54.56;99182.97;5047774;28;20116;-75
2022/07/06 09:01:44;;;;;;;17.88;13.02;;;;;;;25.21;54.95;99191.81;5047099;28;20140;-77
2022/07/06 09:04:12;;;;;;;17.40;12.43;;;;;;;25.22;54.89;99191.41;5046633;28;20120;-77
2022/07/06 09:06:41;;;;;;;19.95;12.52;;;;;;;25.28;54.07;99182.28;5049615;28;20124;-76
2022/07/06 09:09:09;;;;;;;13.00;11.70;;;;;;;25.42;53.57;99193.41;5047583;28;20021;-75
2022/07/06 09:11:35;;;;;;;15.43;12.65;;;;;;;25.50;53.09;99188.34;5044912;28;20029;-76
2022/07/06 09:14:01;;;;;;;15.95;13.43;;;;;;;25.58;53.23;99191.84;5045821;28;20032;-74
2022/07/06 09:16:29;;;;;;;14.00;12.20;;;;;;;25.88;52.09;99195.63;5045205;28;20416;-73
2022/07/06 09:18:55;;;;;;;21.75;10.38;;;;;;;26.16;49.21;99182.63;5045716;28;20074;-75
2022/07/06 09:21:32;;;;;;;12.75;8.60;;;;;;;26.52;46.27;99186.63;5048817;28;20021;-75
2022/07/06 09:24:00;;;;;;;333.45;43.80;;;;;;;26.77;47.03;99188.78;5058709;28;20420;-77
2022/07/06 09:26:27;;;;;;;28.33;10.80;;;;;;;26.44;48.71;99180.28;5050929;28;20446;-77
2022/07/06 09:28:55;;;;;;;13.23;9.65;;;;;;;26.49;45.71;99185.47;5050371;28;20518;-75
2022/07/06 09:31:20;;;;;;;9.48;8.45;;;;;;;26.81;45.79;99187.88;5050576;28;20487;-78
2022/07/06 09:33:57;;;;;;;9.20;7.38;;;;;;;26.92;45.32;99179.81;5050170;28;20087;-76
2022/07/06 09:36:42;;;;;;;24.20;8.55;;;;;;;27.02;44.44;99178.66;5049328;28;20454;-76
2022/07/06 09:39:21;;;;;;;37.00;8.45;;;;;;;27.22;44.06;99174.00;5050406;28;20407;-78
2022/07/06 09:41:49;;;;;;;16.63;9.35;;;;;;;27.47;43.56;99164.59;5049727;28;20194;-77
2022/07/06 09:44:29;;;;;;;13.95;7.75;;;;;;;27.80;42.88;99170.13;5062385;28;20111;-77
2022/07/06 09:46:59;;;;;;;12.93;8.70;;;;;;;27.83;42.60;99166.31;5054643;28;20376;-85
2022/07/06 09:49:26;;;;;;;18.02;8.30;;;;;;;27.64;41.79;99153.03;5052900;28;20040;-78
2022/07/06 09:51:55;;;;;;;16.85;8.93;;;;;;;27.74;42.77;99148.97;5053237;28;20024;-74
2022/07/06 09:54:20;;;;;;;12.60;9.48;;;;;;;27.82;43.21;99147.47;5066229;28;20078;-75
2022/07/06 09:56:50;;;;;;;11.80;9.07;;;;;;;27.95;42.47;99138.84;5049131;28;20039;-76
2022/07/06 09:59:17;;;;;;;18.90;10.68;;;;;;;27.99;43.35;99155.94;5044707;28;20483;-74
2022/07/06 10:01:43;;;;;;;12.77;9.32;;;;;;;27.83;44.34;99160.56;5050307;28;20033;-75
2022/07/06 10:04:18;;;;;;;19.40;9.55;;;;;;;28.07;42.96;99154.41;5043365;28;20081;-78
2022/07/06 10:06:44;;;;;;;10.18;8.57;;;;;;;28.25;43.11;99158.78;5033502;28;20036;-76
2022/07/06 10:09:12;;;;;;;15.80;9.27;;;;;;;27.80;43.85;99157.81;5048319;28;20427;-74
2022/07/06 10:11:47;;;;;;;18.70;9.82;;;;;;;28.24;43.43;99152.22;5045504;28;20484;-84
2022/07/06 10:14:16;;;;;;;13.38;9.75;;;;;;;28.45;42.75;99144.88;5050379;28;20136;-75
2022/07/06 10:16:43;;;;;;;10.90;9.45;;;;;;;28.41;42.84;99140.53;5051395;28;20025;-72
2022/07/06 10:19:09;;;;;;;11.85;10.02;;;;;;;28.70;42.55;99137.41;5051492;28;20036;-74
2022/07/06 10:21:40;;;;;;;11.10;8.25;;;;;;;28.61;41.21;99137.34;5050116;28;20032;-74
2022/07/06 10:24:08;;;;;;;11.80;8.80;;;;;;;28.83;40.78;99136.53;5051653;28;20049;-80
2022/07/06 10:26:36;;;;;;;10.70;8.18;;;;;;;28.84;40.27;99130.34;5046554;28;20017;-80
2022/07/06 10:29:03;;;;;;;13.25;10.00;;;;;;;28.96;40.71;99134.41;5023262;28;20068;-76
2022/07/06 10:31:31;;;;;;;9.85;8.98;;;;;;;29.13;40.91;99132.09;5038013;28;20043;-80
2022/07/06 10:33:58;;;;;;;15.35;9.68;;;;;;;29.24;41.29;99119.34;5051299;28;20112;-73
2022/07/06 10:36:24;;;;;;;10.05;9.05;;;;;;;29.39;40.98;99125.31;5050480;28;20025;-80
2022/07/06 10:38:53;;;;;;;14.52;9.25;;;;;;;29.22;40.62;99116.13;5045572;28;20083;-79
2022/07/06 10:41:30;;;;;;;17.40;10.27;;;;;;;29.53;41.01;99121.09;5036883;28;20044;-78
2022/07/06 10:44:22;;;;;;;11.57;10.25;;;;;;;29.53;41.58;99113.25;5034143;28;20074;-79
2022/07/06 10:46:51;;;;;;;10.25;9.18;;;;;;;29.71;40.78;99114.59;5043429;28;20052;-74
2022/07/06 10:49:17;;;;;;;11.48;10.30;;;;;;;29.97;40.81;99111.44;5054241;28;20395;-79
2022/07/06 10:51:43;;;;;;;13.02;9.60;;;;;;;30.17;41.06;99101.53;5054342;28;20033;-75
2022/07/06 10:54:09;;;;;;;15.70;9.85;;;;;;;30.32;40.47;99108.28;5055348;28;20376;-76
2022/07/06 10:56:45;;;;;;;10.98;9.85;;;;;;;30.38;39.52;99102.66;5054811;28;20017;-79
2022/07/06 10:59:12;;;;;;;11.73;9.25;;;;;;;30.46;39.26;99097.38;5053485;28;20017;-77
2022/07/06 11:01:38;;;;;;;10.48;9.40;;;;;;;30.56;40.03;99103.91;5036729;28;20400;-78
2022/07/06 11:04:06;;;;;;;16.10;9.77;;;;;;;30.59;40.40;99115.28;5053375;28;20024;-75
2022/07/06 11:06:34;;;;;;;14.98;9.43;;;;;;;30.65;39.31;99110.53;5053167;28;20493;-76
2022/07/06 11:09:08;;;;;;;13.48;9.88;;;;;;;30.43;39.67;99104.09;5055111;28;20115;-78
2022/07/06 11:11:33;;;;;;;10.43;9.27;;;;;;;30.34;40.82;99105.69;5053866;28;20496;-75
2022/07/06 11:14:06;;;;;;;22.55;9.80;;;;;;;30.32;40.86;99099.63;5054606;28;20151;-74
2022/07/06 11:16:36;;;;;;;15.32;9.98;;;;;;;30.40;40.11;99103.75;5052915;28;20085;-77
2022/07/06 11:19:04;;;;;;;;;;;;;;;30.61;41.06;99098.28;5050927;28;20028;-75
2022/07/06 11:21:44;;;;;;;28.13;11.68;;;;;;;30.75;40.64;99096.06;5053645;28;19912;-76
2022/07/06 11:24:16;;;;;;;14.15;10.73;;;;;;;30.88;40.36;99096.66;5054218;28;20098;-74